sensor_id;sensor_type;location;lat;lon;timestamp;P1;durP1;ratioP1;P2;durP2;ratioP2
5117;SDS011;2578;51.622;7.046;2022-07-29T00:02:13;21.10;;;19.20;;
5117;SDS011;2578;51.622;7.046;2022-07-29T00:04:39;21.50;;;19.50;;
5117;SDS011;2578;51.622;7.046;2022-07-29T00:07:04;20.90;;;19.00;;
5117;SDS011;2578;51.622;7.046;2022-07-29T00:09:30;20.80;;;18.90;;
5117;SDS011;2578;51.622;7.046;2022-07-29T00:11:57;20.55;;;18.65;;
5117;SDS011;2578;51.622;7.046;2022-07-29T00:14:25;20.80;;;18.90;;
5117;SDS011;2578;51.622;7.046;2022-07-29T00:16:51;20.80;;;18.90;;
5117;SDS011;2578;51.622;7.046;2022-07-29T00:19:17;20.70;;;18.80;;
5117;SDS011;2578;51.622;7.046;2022-07-29T00:21:43;20.17;;;18.30;;
5117;SDS011;2578;51.622;7.046;2022-07-29T00:24:08;20.50;;;18.60;;
5117;SDS011;2578;51.622;7.046;2022-07-29T00:26:34;20.10;;;18.30;;
5117;SDS011;2578;51.622;7.046;2022-07-29T00:29:00;20.97;;;18.97;;
5117;SDS011;2578;51.622;7.046;2022-07-29T00:31:26;20.63;;;18.70;;
5117;SDS011;2578;51.622;7.046;2022-07-29T00:33:52;20.80;;;18.80;;
5117;SDS011;2578;51.622;7.046;2022-07-29T00:36:18;20.73;;;18.77;;
5117;SDS011;2578;51.622;7.046;2022-07-29T00:38:45;20.20;;;18.30;;
5117;SDS011;2578;51.622;7.046;2022-07-29T00:41:12;20.70;;;18.80;;
5117;SDS011;2578;51.622;7.046;2022-07-29T00:43:38;19.80;;;18.00;;
5117;SDS011;2578;51.622;7.046;2022-07-29T00:46:03;20.60;;;18.60;;
5117;SDS011;2578;51.622;7.046;2022-07-29T00:48:29;20.47;;;18.57;;
5117;SDS011;2578;51.622;7.046;2022-07-29T00:50:56;20.25;;;18.40;;
5117;SDS011;2578;51.622;7.046;2022-07-29T00:53:23;19.63;;;17.83;;
5117;SDS011;2578;51.622;7.046;2022-07-29T00:55:50;19.70;;;17.90;;
5117;SDS011;2578;51.622;7.046;2022-07-29T00:58:18;20.10;;;18.20;;
5117;SDS011;2578;51.622;7.046;2022-07-29T01:00:44;20.20;;;18.30;;
5117;SDS011;2578;51.622;7.046;2022-07-29T01:03:09;20.00;;;18.10;;
5117;SDS011;2578;51.622;7.046;2022-07-29T01:05:35;19.90;;;18.00;;
5117;SDS011;2578;51.622;7.046;2022-07-29T01:08:01;19.90;;;18.00;;
5117;SDS011;2578;51.622;7.046;2022-07-29T01:10:27;19.90;;;18.00;;
5117;SDS011;2578;51.622;7.046;2022-07-29T01:12:54;19.90;;;18.00;;
5117;SDS011;2578;51.622;7.046;2022-07-29T01:15:24;19.63;;;17.73;;
5117;SDS011;2578;51.622;7.046;2022-07-29T01:17:59;19.20;;;17.40;;
5117;SDS011;2578;51.622;7.046;2022-07-29T01:20:53;18.10;;;16.40;;
5117;SDS011;2578;51.622;7.046;2022-07-29T01:29:58;16.50;;;14.90;;
5117;SDS011;2578;51.622;7.046;2022-07-29T01:32:28;17.10;;;15.50;;
5117;SDS011;2578;51.622;7.046;2022-07-29T01:38:30;17.20;;;15.60;;
5117;SDS011;2578;51.622;7.046;2022-07-29T01:41:00;16.80;;;15.20;;
5117;SDS011;2578;51.622;7.046;2022-07-29T01:43:38;16.75;;;15.15;;
5117;SDS011;2578;51.622;7.046;2022-07-29T01:46:11;15.83;;;14.33;;
5117;SDS011;2578;51.622;7.046;2022-07-29T01:48:45;16.10;;;14.60;;
5117;SDS011;2578;51.622;7.046;2022-07-29T01:51:19;16.00;;;14.50;;
5117;SDS011;2578;51.622;7.046;2022-07-29T01:56:23;15.97;;;14.47;;
5117;SDS011;2578;51.622;7.046;2022-07-29T01:58:54;15.97;;;14.47;;
5117;SDS011;2578;51.622;7.046;2022-07-29T02:01:22;15.77;;;14.27;;
5117;SDS011;2578;51.622;7.046;2022-07-29T02:03:50;15.50;;;14.03;;
5117;SDS011;2578;51.622;7.046;2022-07-29T02:06:19;15.20;;;13.80;;
5117;SDS011;2578;51.622;7.046;2022-07-29T02:08:46;15.30;;;13.90;;
5117;SDS011;2578;51.622;7.046;2022-07-29T02:11:13;14.00;;;12.70;;
5117;SDS011;2578;51.622;7.046;2022-07-29T02:13:39;14.50;;;13.10;;
5117;SDS011;2578;51.622;7.046;2022-07-29T02:16:07;14.70;;;13.30;;
5117;SDS011;2578;51.622;7.046;2022-07-29T02:18:35;14.60;;;13.20;;
5117;SDS011;2578;51.622;7.046;2022-07-29T02:21:04;15.00;;;13.60;;
5117;SDS011;2578;51.622;7.046;2022-07-29T02:23:30;14.20;;;12.80;;
5117;SDS011;2578;51.622;7.046;2022-07-29T02:25:57;14.18;;;12.80;;
5117;SDS011;2578;51.622;7.046;2022-07-29T02:28:24;14.80;;;13.40;;
5117;SDS011;2578;51.622;7.046;2022-07-29T02:30:52;14.50;;;13.10;;
5117;SDS011;2578;51.622;7.046;2022-07-29T02:33:19;14.80;;;13.40;;
5117;SDS011;2578;51.622;7.046;2022-07-29T02:35:47;13.87;;;12.57;;
5117;SDS011;2578;51.622;7.046;2022-07-29T02:38:14;13.40;;;12.10;;
5117;SDS011;2578;51.622;7.046;2022-07-29T02:41:15;12.70;;;11.50;;
5117;SDS011;2578;51.622;7.046;2022-07-29T02:44:03;11.70;;;10.50;;
5117;SDS011;2578;51.622;7.046;2022-07-29T02:46:34;11.02;;;9.93;;
5117;SDS011;2578;51.622;7.046;2022-07-29T02:49:06;11.10;;;10.00;;
5117;SDS011;2578;51.622;7.046;2022-07-29T02:51:40;10.90;;;9.80;;
5117;SDS011;2578;51.622;7.046;2022-07-29T02:54:10;10.07;;;8.97;;
5117;SDS011;2578;51.622;7.046;2022-07-29T02:56:41;9.63;;;8.20;;
5117;SDS011;2578;51.622;7.046;2022-07-29T02:59:10;9.43;;;7.70;;
5117;SDS011;2578;51.622;7.046;2022-07-29T03:01:39;9.27;;;7.20;;
5117;SDS011;2578;51.622;7.046;2022-07-29T03:04:08;9.00;;;6.60;;
5117;SDS011;2578;51.622;7.046;2022-07-29T03:06:36;8.70;;;5.87;;
5117;SDS011;2578;51.622;7.046;2022-07-29T03:09:04;8.37;;;5.50;;
5117;SDS011;2578;51.622;7.046;2022-07-29T03:11:32;8.07;;;5.10;;
5117;SDS011;2578;51.622;7.046;2022-07-29T03:13:59;7.83;;;4.70;;
5117;SDS011;2578;51.622;7.046;2022-07-29T03:16:25;7.80;;;4.50;;
5117;SDS011;2578;51.622;7.046;2022-07-29T03:18:51;7.57;;;4.40;;
5117;SDS011;2578;51.622;7.046;2022-07-29T03:21:17;7.60;;;4.30;;
5117;SDS011;2578;51.622;7.046;2022-07-29T03:23:43;7.47;;;3.90;;
5117;SDS011;2578;51.622;7.046;2022-07-29T03:26:12;7.27;;;3.50;;
5117;SDS011;2578;51.622;7.046;2022-07-29T03:28:38;7.20;;;4.63;;
5117;SDS011;2578;51.622;7.046;2022-07-29T03:31:04;7.70;;;5.40;;
5117;SDS011;2578;51.622;7.046;2022-07-29T03:33:29;8.07;;;6.20;;
5117;SDS011;2578;51.622;7.046;2022-07-29T03:35:55;8.27;;;6.57;;
5117;SDS011;2578;51.622;7.046;2022-07-29T03:38:22;8.10;;;6.23;;
5117;SDS011;2578;51.622;7.046;2022-07-29T03:41:00;8.20;;;6.50;;
5117;SDS011;2578;51.622;7.046;2022-07-29T03:43:29;8.27;;;6.60;;
5117;SDS011;2578;51.622;7.046;2022-07-29T03:45:57;8.50;;;7.20;;
5117;SDS011;2578;51.622;7.046;2022-07-29T03:48:25;8.37;;;7.03;;
5117;SDS011;2578;51.622;7.046;2022-07-29T03:50:54;8.20;;;6.60;;
5117;SDS011;2578;51.622;7.046;2022-07-29T03:53:20;8.20;;;6.70;;
5117;SDS011;2578;51.622;7.046;2022-07-29T03:55:48;8.27;;;7.00;;
5117;SDS011;2578;51.622;7.046;2022-07-29T03:58:18;8.30;;;7.13;;
5117;SDS011;2578;51.622;7.046;2022-07-29T04:00:44;8.17;;;7.00;;
5117;SDS011;2578;51.622;7.046;2022-07-29T04:03:11;8.32;;;7.30;;
5117;SDS011;2578;51.622;7.046;2022-07-29T04:05:38;8.87;;;7.97;;
5117;SDS011;2578;51.622;7.046;2022-07-29T04:08:03;9.13;;;8.23;;
5117;SDS011;2578;51.622;7.046;2022-07-29T04:10:29;10.02;;;9.02;;
5117;SDS011;2578;51.622;7.046;2022-07-29T04:12:55;10.20;;;9.20;;
5117;SDS011;2578;51.622;7.046;2022-07-29T04:15:21;9.90;;;8.90;;
5117;SDS011;2578;51.622;7.046;2022-07-29T04:17:47;10.13;;;9.13;;
5117;SDS011;2578;51.622;7.046;2022-07-29T04:20:12;12.10;;;11.00;;
5117;SDS011;2578;51.622;7.046;2022-07-29T04:22:38;10.10;;;9.10;;
5117;SDS011;2578;51.622;7.046;2022-07-29T04:25:05;9.90;;;8.90;;
5117;SDS011;2578;51.622;7.046;2022-07-29T04:27:31;10.30;;;9.30;;
5117;SDS011;2578;51.622;7.046;2022-07-29T04:29:57;10.20;;;9.20;;
5117;SDS011;2578;51.622;7.046;2022-07-29T04:32:22;9.60;;;8.70;;
5117;SDS011;2578;51.622;7.046;2022-07-29T04:34:49;9.00;;;8.10;;
5117;SDS011;2578;51.622;7.046;2022-07-29T04:37:14;10.48;;;9.38;;
5117;SDS011;2578;51.622;7.046;2022-07-29T04:39:40;10.50;;;9.50;;
5117;SDS011;2578;51.622;7.046;2022-07-29T04:42:05;10.67;;;9.67;;
5117;SDS011;2578;51.622;7.046;2022-07-29T04:44:31;10.70;;;9.70;;
5117;SDS011;2578;51.622;7.046;2022-07-29T04:46:57;10.60;;;9.60;;
5117;SDS011;2578;51.622;7.046;2022-07-29T04:49:22;10.30;;;9.30;;
5117;SDS011;2578;51.622;7.046;2022-07-29T04:51:48;10.57;;;9.57;;
5117;SDS011;2578;51.622;7.046;2022-07-29T04:54:14;10.10;;;9.10;;
5117;SDS011;2578;51.622;7.046;2022-07-29T04:56:39;10.00;;;9.00;;
5117;SDS011;2578;51.622;7.046;2022-07-29T04:59:06;9.75;;;8.80;;
5117;SDS011;2578;51.622;7.046;2022-07-29T05:01:32;9.10;;;8.20;;
5117;SDS011;2578;51.622;7.046;2022-07-29T05:03:58;9.63;;;8.70;;
5117;SDS011;2578;51.622;7.046;2022-07-29T05:06:23;8.30;;;7.30;;
5117;SDS011;2578;51.622;7.046;2022-07-29T05:08:49;8.35;;;7.40;;
5117;SDS011;2578;51.622;7.046;2022-07-29T05:11:14;8.30;;;7.40;;
5117;SDS011;2578;51.622;7.046;2022-07-29T05:13:40;7.97;;;7.10;;
5117;SDS011;2578;51.622;7.046;2022-07-29T05:16:07;9.90;;;6.80;;
5117;SDS011;2578;51.622;7.046;2022-07-29T05:18:34;8.23;;;6.60;;
5117;SDS011;2578;51.622;7.046;2022-07-29T05:20:59;8.50;;;6.90;;
5117;SDS011;2578;51.622;7.046;2022-07-29T05:23:25;8.80;;;7.03;;
5117;SDS011;2578;51.622;7.046;2022-07-29T05:25:51;8.23;;;6.40;;
5117;SDS011;2578;51.622;7.046;2022-07-29T05:28:16;8.47;;;6.80;;
5117;SDS011;2578;51.622;7.046;2022-07-29T05:30:42;8.27;;;6.53;;
5117;SDS011;2578;51.622;7.046;2022-07-29T05:33:09;8.23;;;6.70;;
5117;SDS011;2578;51.622;7.046;2022-07-29T05:35:35;8.27;;;6.50;;
5117;SDS011;2578;51.622;7.046;2022-07-29T05:38:02;8.07;;;6.17;;
5117;SDS011;2578;51.622;7.046;2022-07-29T05:40:31;8.18;;;6.40;;
5117;SDS011;2578;51.622;7.046;2022-07-29T05:42:57;8.37;;;6.70;;
5117;SDS011;2578;51.622;7.046;2022-07-29T05:45:23;8.30;;;6.50;;
5117;SDS011;2578;51.622;7.046;2022-07-29T05:47:49;8.27;;;6.40;;
5117;SDS011;2578;51.622;7.046;2022-07-29T05:50:15;7.87;;;6.30;;
5117;SDS011;2578;51.622;7.046;2022-07-29T05:52:40;8.03;;;6.10;;
5117;SDS011;2578;51.622;7.046;2022-07-29T05:55:06;8.10;;;6.30;;
5117;SDS011;2578;51.622;7.046;2022-07-29T05:57:32;8.07;;;6.10;;
5117;SDS011;2578;51.622;7.046;2022-07-29T05:59:58;7.93;;;5.90;;
5117;SDS011;2578;51.622;7.046;2022-07-29T06:02:24;7.90;;;5.90;;
5117;SDS011;2578;51.622;7.046;2022-07-29T06:04:49;8.87;;;6.20;;
5117;SDS011;2578;51.622;7.046;2022-07-29T06:07:15;7.63;;;5.13;;
5117;SDS011;2578;51.622;7.046;2022-07-29T06:09:41;7.37;;;4.60;;
5117;SDS011;2578;51.622;7.046;2022-07-29T06:12:07;7.30;;;4.10;;
5117;SDS011;2578;51.622;7.046;2022-07-29T06:14:34;7.23;;;4.10;;
5117;SDS011;2578;51.622;7.046;2022-07-29T06:17:00;7.10;;;3.80;;
5117;SDS011;2578;51.622;7.046;2022-07-29T06:19:26;7.22;;;3.92;;
5117;SDS011;2578;51.622;7.046;2022-07-29T06:21:52;7.10;;;3.70;;
5117;SDS011;2578;51.622;7.046;2022-07-29T06:24:18;7.10;;;3.80;;
5117;SDS011;2578;51.622;7.046;2022-07-29T06:26:43;7.20;;;3.90;;
5117;SDS011;2578;51.622;7.046;2022-07-29T06:29:09;7.13;;;3.80;;
5117;SDS011;2578;51.622;7.046;2022-07-29T06:31:36;7.20;;;3.80;;
5117;SDS011;2578;51.622;7.046;2022-07-29T06:34:03;7.32;;;4.40;;
5117;SDS011;2578;51.622;7.046;2022-07-29T06:36:29;7.33;;;4.30;;
5117;SDS011;2578;51.622;7.046;2022-07-29T06:38:55;7.13;;;3.70;;
5117;SDS011;2578;51.622;7.046;2022-07-29T06:41:21;7.17;;;3.60;;
5117;SDS011;2578;51.622;7.046;2022-07-29T06:43:47;7.37;;;4.00;;
5117;SDS011;2578;51.622;7.046;2022-07-29T06:46:15;7.10;;;3.50;;
5117;SDS011;2578;51.622;7.046;2022-07-29T06:48:45;6.90;;;3.20;;
5117;SDS011;2578;51.622;7.046;2022-07-29T06:51:12;7.07;;;3.30;;
5117;SDS011;2578;51.622;7.046;2022-07-29T06:53:38;24.70;;;22.60;;
5117;SDS011;2578;51.622;7.046;2022-07-29T06:56:05;6.93;;;3.10;;
5117;SDS011;2578;51.622;7.046;2022-07-29T06:58:33;6.83;;;2.80;;
5117;SDS011;2578;51.622;7.046;2022-07-29T07:01:01;6.88;;;2.92;;
5117;SDS011;2578;51.622;7.046;2022-07-29T07:03:28;6.80;;;2.80;;
5117;SDS011;2578;51.622;7.046;2022-07-29T07:05:54;6.77;;;2.60;;
5117;SDS011;2578;51.622;7.046;2022-07-29T07:08:21;6.80;;;2.50;;
5117;SDS011;2578;51.622;7.046;2022-07-29T07:10:47;6.67;;;2.60;;
5117;SDS011;2578;51.622;7.046;2022-07-29T07:13:13;6.87;;;3.00;;
5117;SDS011;2578;51.622;7.046;2022-07-29T07:15:39;6.95;;;3.20;;
5117;SDS011;2578;51.622;7.046;2022-07-29T07:18:06;7.10;;;4.00;;
5117;SDS011;2578;51.622;7.046;2022-07-29T07:20:35;7.90;;;5.40;;
5117;SDS011;2578;51.622;7.046;2022-07-29T07:23:01;7.67;;;5.30;;
5117;SDS011;2578;51.622;7.046;2022-07-29T07:25:27;7.60;;;5.20;;
5117;SDS011;2578;51.622;7.046;2022-07-29T07:27:53;7.88;;;5.50;;
5117;SDS011;2578;51.622;7.046;2022-07-29T07:30:19;7.80;;;5.50;;
5117;SDS011;2578;51.622;7.046;2022-07-29T07:32:45;7.90;;;5.70;;
5117;SDS011;2578;51.622;7.046;2022-07-29T07:35:11;7.90;;;5.90;;
5117;SDS011;2578;51.622;7.046;2022-07-29T07:37:37;7.97;;;6.20;;
5117;SDS011;2578;51.622;7.046;2022-07-29T07:40:05;8.30;;;6.90;;
5117;SDS011;2578;51.622;7.046;2022-07-29T07:42:32;8.70;;;7.50;;
5117;SDS011;2578;51.622;7.046;2022-07-29T07:44:58;8.87;;;7.83;;
5117;SDS011;2578;51.622;7.046;2022-07-29T07:47:24;9.68;;;8.60;;
5117;SDS011;2578;51.622;7.046;2022-07-29T07:49:50;10.70;;;9.70;;
5117;SDS011;2578;51.622;7.046;2022-07-29T07:52:16;14.07;;;10.03;;
5117;SDS011;2578;51.622;7.046;2022-07-29T07:54:43;9.60;;;8.60;;
5117;SDS011;2578;51.622;7.046;2022-07-29T07:57:10;10.50;;;9.50;;
5117;SDS011;2578;51.622;7.046;2022-07-29T07:59:36;11.23;;;10.13;;
5117;SDS011;2578;51.622;7.046;2022-07-29T08:02:02;10.50;;;9.50;;
5117;SDS011;2578;51.622;7.046;2022-07-29T08:04:28;10.30;;;9.30;;
5117;SDS011;2578;51.622;7.046;2022-07-29T08:06:54;10.50;;;9.50;;
5117;SDS011;2578;51.622;7.046;2022-07-29T08:09:21;10.83;;;9.83;;
5117;SDS011;2578;51.622;7.046;2022-07-29T08:11:47;12.88;;;11.77;;
5117;SDS011;2578;51.622;7.046;2022-07-29T08:14:13;13.20;;;12.00;;
5117;SDS011;2578;51.622;7.046;2022-07-29T08:16:39;13.33;;;12.13;;
5117;SDS011;2578;51.622;7.046;2022-07-29T08:19:05;13.70;;;12.50;;
5117;SDS011;2578;51.622;7.046;2022-07-29T08:21:31;13.47;;;12.30;;
5117;SDS011;2578;51.622;7.046;2022-07-29T08:23:57;13.03;;;11.93;;
5117;SDS011;2578;51.622;7.046;2022-07-29T08:26:42;13.80;;;12.60;;
5117;SDS011;2578;51.622;7.046;2022-07-29T08:29:08;13.70;;;12.50;;
5117;SDS011;2578;51.622;7.046;2022-07-29T08:31:34;13.30;;;12.20;;
5117;SDS011;2578;51.622;7.046;2022-07-29T08:34:00;13.70;;;12.50;;
5117;SDS011;2578;51.622;7.046;2022-07-29T08:36:27;14.00;;;12.80;;
5117;SDS011;2578;51.622;7.046;2022-07-29T08:38:53;14.33;;;13.13;;
5117;SDS011;2578;51.622;7.046;2022-07-29T08:41:19;13.90;;;12.70;;
5117;SDS011;2578;51.622;7.046;2022-07-29T08:43:45;12.60;;;11.50;;
5117;SDS011;2578;51.622;7.046;2022-07-29T08:46:11;12.30;;;11.20;;
5117;SDS011;2578;51.622;7.046;2022-07-29T08:48:37;11.20;;;10.20;;
5117;SDS011;2578;51.622;7.046;2022-07-29T08:51:05;11.20;;;10.20;;
5117;SDS011;2578;51.622;7.046;2022-07-29T08:53:32;11.32;;;10.32;;
5117;SDS011;2578;51.622;7.046;2022-07-29T08:56:00;10.27;;;9.27;;
5117;SDS011;2578;51.622;7.046;2022-07-29T08:58:27;9.50;;;8.60;;
5117;SDS011;2578;51.622;7.046;2022-07-29T09:00:57;10.83;;;9.83;;
5117;SDS011;2578;51.622;7.046;2022-07-29T09:03:29;9.17;;;8.27;;
5117;SDS011;2578;51.622;7.046;2022-07-29T09:05:59;7.80;;;7.00;;
5117;SDS011;2578;51.622;7.046;2022-07-29T09:08:25;7.80;;;6.20;;
5117;SDS011;2578;51.622;7.046;2022-07-29T09:10:51;8.10;;;6.80;;
5117;SDS011;2578;51.622;7.046;2022-07-29T09:13:17;7.80;;;6.20;;
5117;SDS011;2578;51.622;7.046;2022-07-29T09:15:43;7.63;;;5.67;;
5117;SDS011;2578;51.622;7.046;2022-07-29T09:18:09;7.90;;;6.10;;
5117;SDS011;2578;51.622;7.046;2022-07-29T09:20:35;7.80;;;5.70;;
5117;SDS011;2578;51.622;7.046;2022-07-29T09:23:19;7.57;;;4.80;;
5117;SDS011;2578;51.622;7.046;2022-07-29T09:25:45;7.13;;;3.70;;
5117;SDS011;2578;51.622;7.046;2022-07-29T09:28:12;8.17;;;4.23;;
5117;SDS011;2578;51.622;7.046;2022-07-29T09:33:17;7.20;;;4.30;;
5117;SDS011;2578;51.622;7.046;2022-07-29T09:35:43;7.17;;;4.37;;
5117;SDS011;2578;51.622;7.046;2022-07-29T09:38:10;7.30;;;4.40;;
5117;SDS011;2578;51.622;7.046;2022-07-29T09:40:37;7.37;;;4.47;;
5117;SDS011;2578;51.622;7.046;2022-07-29T09:43:09;7.43;;;4.50;;
5117;SDS011;2578;51.622;7.046;2022-07-29T09:45:36;7.57;;;4.90;;
5117;SDS011;2578;51.622;7.046;2022-07-29T09:48:16;7.50;;;4.67;;
5117;SDS011;2578;51.622;7.046;2022-07-29T09:50:44;7.30;;;4.10;;
5117;SDS011;2578;51.622;7.046;2022-07-29T09:56:00;7.40;;;4.40;;
5117;SDS011;2578;51.622;7.046;2022-07-29T09:59:04;7.60;;;3.90;;
5117;SDS011;2578;51.622;7.046;2022-07-29T10:01:36;7.28;;;3.83;;
5117;SDS011;2578;51.622;7.046;2022-07-29T10:04:02;7.10;;;3.60;;
5117;SDS011;2578;51.622;7.046;2022-07-29T10:06:28;6.90;;;3.00;;
5117;SDS011;2578;51.622;7.046;2022-07-29T10:08:54;6.80;;;2.70;;
5117;SDS011;2578;51.622;7.046;2022-07-29T10:11:31;6.55;;;3.17;;
5117;SDS011;2578;51.622;7.046;2022-07-29T10:13:57;7.03;;;3.27;;
5117;SDS011;2578;51.622;7.046;2022-07-29T10:16:23;6.67;;;3.00;;
5117;SDS011;2578;51.622;7.046;2022-07-29T10:18:50;6.73;;;3.00;;
5117;SDS011;2578;51.622;7.046;2022-07-29T10:21:18;6.50;;;2.40;;
5117;SDS011;2578;51.622;7.046;2022-07-29T10:23:48;6.53;;;2.80;;
5117;SDS011;2578;51.622;7.046;2022-07-29T10:26:15;6.60;;;2.50;;
5117;SDS011;2578;51.622;7.046;2022-07-29T10:28:41;6.70;;;2.80;;
5117;SDS011;2578;51.622;7.046;2022-07-29T10:31:27;6.73;;;3.10;;
5117;SDS011;2578;51.622;7.046;2022-07-29T10:34:25;7.10;;;3.90;;
5117;SDS011;2578;51.622;7.046;2022-07-29T10:43:41;7.00;;;3.93;;
5117;SDS011;2578;51.622;7.046;2022-07-29T10:46:10;6.80;;;3.33;;
5117;SDS011;2578;51.622;7.046;2022-07-29T10:49:24;6.90;;;3.50;;
5117;SDS011;2578;51.622;7.046;2022-07-29T10:57:13;7.17;;;4.10;;
5117;SDS011;2578;51.622;7.046;2022-07-29T10:59:47;7.13;;;4.10;;
5117;SDS011;2578;51.622;7.046;2022-07-29T11:07:31;7.70;;;5.50;;
5117;SDS011;2578;51.622;7.046;2022-07-29T11:15:08;8.23;;;6.63;;
5117;SDS011;2578;51.622;7.046;2022-07-29T11:20:32;8.43;;;7.18;;
5117;SDS011;2578;51.622;7.046;2022-07-29T11:22:58;8.73;;;7.80;;
5117;SDS011;2578;51.622;7.046;2022-07-29T11:25:25;10.90;;;9.90;;
5117;SDS011;2578;51.622;7.046;2022-07-29T11:27:52;11.37;;;10.37;;
5117;SDS011;2578;51.622;7.046;2022-07-29T11:30:50;12.60;;;11.50;;
5117;SDS011;2578;51.622;7.046;2022-07-29T11:33:33;12.87;;;11.77;;
5117;SDS011;2578;51.622;7.046;2022-07-29T11:38:35;14.50;;;13.20;;
5117;SDS011;2578;51.622;7.046;2022-07-29T11:43:54;18.70;;;17.10;;
5117;SDS011;2578;51.622;7.046;2022-07-29T11:49:11;23.00;;;21.10;;
5117;SDS011;2578;51.622;7.046;2022-07-29T11:51:38;25.00;;;22.90;;
5117;SDS011;2578;51.622;7.046;2022-07-29T11:54:05;23.30;;;21.30;;
5117;SDS011;2578;51.622;7.046;2022-07-29T11:56:36;24.20;;;22.10;;
5117;SDS011;2578;51.622;7.046;2022-07-29T11:59:09;24.40;;;22.30;;
5117;SDS011;2578;51.622;7.046;2022-07-29T12:01:36;24.97;;;22.87;;
5117;SDS011;2578;51.622;7.046;2022-07-29T12:04:16;24.33;;;22.20;;
5117;SDS011;2578;51.622;7.046;2022-07-29T12:06:42;24.20;;;22.00;;
5117;SDS011;2578;51.622;7.046;2022-07-29T12:09:14;26.27;;;23.97;;
5117;SDS011;2578;51.622;7.046;2022-07-29T12:11:40;23.30;;;21.20;;
5117;SDS011;2578;51.622;7.046;2022-07-29T12:14:07;22.50;;;20.40;;
5117;SDS011;2578;51.622;7.046;2022-07-29T12:16:34;23.70;;;21.50;;
5117;SDS011;2578;51.622;7.046;2022-07-29T12:19:04;23.93;;;21.83;;
5117;SDS011;2578;51.622;7.046;2022-07-29T12:21:49;24.20;;;22.00;;
5117;SDS011;2578;51.622;7.046;2022-07-29T12:24:18;24.20;;;22.10;;
5117;SDS011;2578;51.622;7.046;2022-07-29T12:29:24;23.88;;;21.67;;
5117;SDS011;2578;51.622;7.046;2022-07-29T12:31:55;22.93;;;20.90;;
5117;SDS011;2578;51.622;7.046;2022-07-29T12:34:23;28.13;;;24.43;;
5117;SDS011;2578;51.622;7.046;2022-07-29T12:36:52;24.40;;;22.30;;
5117;SDS011;2578;51.622;7.046;2022-07-29T12:39:18;24.30;;;22.20;;
5117;SDS011;2578;51.622;7.046;2022-07-29T12:41:45;25.03;;;22.93;;
5117;SDS011;2578;51.622;7.046;2022-07-29T12:44:12;24.13;;;22.10;;
5117;SDS011;2578;51.622;7.046;2022-07-29T12:46:38;23.83;;;21.77;;
5117;SDS011;2578;51.622;7.046;2022-07-29T12:49:04;23.40;;;21.40;;
5117;SDS011;2578;51.622;7.046;2022-07-29T12:51:39;23.90;;;21.80;;
5117;SDS011;2578;51.622;7.046;2022-07-29T12:54:09;23.60;;;21.50;;
5117;SDS011;2578;51.622;7.046;2022-07-29T12:56:38;23.07;;;21.07;;
5117;SDS011;2578;51.622;7.046;2022-07-29T12:59:15;23.17;;;21.20;;
5117;SDS011;2578;51.622;7.046;2022-07-29T13:01:46;23.30;;;21.30;;
5117;SDS011;2578;51.622;7.046;2022-07-29T13:06:59;23.47;;;21.47;;
5117;SDS011;2578;51.622;7.046;2022-07-29T13:09:35;22.40;;;20.50;;
5117;SDS011;2578;51.622;7.046;2022-07-29T13:12:06;21.50;;;19.60;;
5117;SDS011;2578;51.622;7.046;2022-07-29T13:14:36;20.10;;;18.30;;
5117;SDS011;2578;51.622;7.046;2022-07-29T13:19:41;19.00;;;17.30;;
5117;SDS011;2578;51.622;7.046;2022-07-29T13:22:09;18.50;;;16.83;;
5117;SDS011;2578;51.622;7.046;2022-07-29T13:24:46;19.17;;;17.48;;
5117;SDS011;2578;51.622;7.046;2022-07-29T13:27:28;20.90;;;19.00;;
5117;SDS011;2578;51.622;7.046;2022-07-29T13:29:57;18.07;;;16.47;;
5117;SDS011;2578;51.622;7.046;2022-07-29T13:32:25;18.70;;;17.10;;
5117;SDS011;2578;51.622;7.046;2022-07-29T13:34:52;18.83;;;17.23;;
5117;SDS011;2578;51.622;7.046;2022-07-29T13:37:18;17.30;;;15.70;;
5117;SDS011;2578;51.622;7.046;2022-07-29T13:39:44;20.07;;;18.30;;
5117;SDS011;2578;51.622;7.046;2022-07-29T13:42:10;17.30;;;15.80;;
5117;SDS011;2578;51.622;7.046;2022-07-29T13:44:38;16.73;;;15.23;;
5117;SDS011;2578;51.622;7.046;2022-07-29T13:47:04;16.70;;;15.20;;
5117;SDS011;2578;51.622;7.046;2022-07-29T13:49:31;16.33;;;14.93;;
5117;SDS011;2578;51.622;7.046;2022-07-29T13:51:57;17.47;;;15.97;;
5117;SDS011;2578;51.622;7.046;2022-07-29T13:54:23;17.40;;;15.90;;
5117;SDS011;2578;51.622;7.046;2022-07-29T13:56:49;17.33;;;15.83;;
5117;SDS011;2578;51.622;7.046;2022-07-29T13:59:16;17.10;;;15.60;;
5117;SDS011;2578;51.622;7.046;2022-07-29T14:01:42;17.17;;;15.67;;
5117;SDS011;2578;51.622;7.046;2022-07-29T14:04:08;17.20;;;15.60;;
5117;SDS011;2578;51.622;7.046;2022-07-29T14:06:35;18.10;;;16.50;;
5117;SDS011;2578;51.622;7.046;2022-07-29T14:09:03;16.83;;;15.33;;
5117;SDS011;2578;51.622;7.046;2022-07-29T14:11:34;16.70;;;15.20;;
5117;SDS011;2578;51.622;7.046;2022-07-29T14:14:00;17.40;;;15.80;;
5117;SDS011;2578;51.622;7.046;2022-07-29T14:16:26;21.05;;;17.38;;
5117;SDS011;2578;51.622;7.046;2022-07-29T14:18:52;19.33;;;17.33;;
5117;SDS011;2578;51.622;7.046;2022-07-29T14:21:17;19.40;;;17.57;;
5117;SDS011;2578;51.622;7.046;2022-07-29T14:23:43;19.80;;;18.10;;
5117;SDS011;2578;51.622;7.046;2022-07-29T14:26:09;20.00;;;18.20;;
5117;SDS011;2578;51.622;7.046;2022-07-29T14:28:34;19.73;;;17.97;;
5117;SDS011;2578;51.622;7.046;2022-07-29T14:31:00;20.57;;;18.77;;
5117;SDS011;2578;51.622;7.046;2022-07-29T14:33:26;19.90;;;18.10;;
5117;SDS011;2578;51.622;7.046;2022-07-29T14:35:52;20.10;;;18.30;;
5117;SDS011;2578;51.622;7.046;2022-07-29T14:38:17;20.70;;;18.80;;
5117;SDS011;2578;51.622;7.046;2022-07-29T14:40:43;21.83;;;19.60;;
5117;SDS011;2578;51.622;7.046;2022-07-29T14:43:09;20.80;;;18.90;;
5117;SDS011;2578;51.622;7.046;2022-07-29T14:45:34;20.40;;;18.40;;
5117;SDS011;2578;51.622;7.046;2022-07-29T14:48:00;21.23;;;19.23;;
5117;SDS011;2578;51.622;7.046;2022-07-29T14:50:26;20.27;;;18.48;;
5117;SDS011;2578;51.622;7.046;2022-07-29T14:52:52;19.67;;;17.87;;
5117;SDS011;2578;51.622;7.046;2022-07-29T14:55:18;18.70;;;17.00;;
5117;SDS011;2578;51.622;7.046;2022-07-29T14:57:44;19.00;;;17.30;;
5117;SDS011;2578;51.622;7.046;2022-07-29T15:00:10;19.40;;;17.70;;
5117;SDS011;2578;51.622;7.046;2022-07-29T15:02:38;18.80;;;17.10;;
5117;SDS011;2578;51.622;7.046;2022-07-29T15:05:04;19.30;;;17.60;;
5117;SDS011;2578;51.622;7.046;2022-07-29T15:07:30;19.57;;;17.87;;
5117;SDS011;2578;51.622;7.046;2022-07-29T15:09:56;19.00;;;17.30;;
5117;SDS011;2578;51.622;7.046;2022-07-29T15:12:22;19.00;;;17.30;;
5117;SDS011;2578;51.622;7.046;2022-07-29T15:14:48;21.17;;;19.27;;
5117;SDS011;2578;51.622;7.046;2022-07-29T15:17:14;20.10;;;18.30;;
5117;SDS011;2578;51.622;7.046;2022-07-29T15:19:40;19.17;;;17.47;;
5117;SDS011;2578;51.622;7.046;2022-07-29T15:22:05;21.10;;;19.30;;
5117;SDS011;2578;51.622;7.046;2022-07-29T15:24:31;27.50;;;25.27;;
5117;SDS011;2578;51.622;7.046;2022-07-29T15:26:57;21.03;;;19.20;;
5117;SDS011;2578;51.622;7.046;2022-07-29T15:29:23;20.50;;;18.70;;
5117;SDS011;2578;51.622;7.046;2022-07-29T15:31:49;20.67;;;18.87;;
5117;SDS011;2578;51.622;7.046;2022-07-29T15:34:15;21.00;;;19.20;;
5117;SDS011;2578;51.622;7.046;2022-07-29T15:36:41;20.80;;;19.00;;
5117;SDS011;2578;51.622;7.046;2022-07-29T15:39:07;20.80;;;18.90;;
5117;SDS011;2578;51.622;7.046;2022-07-29T15:41:34;19.30;;;17.60;;
5117;SDS011;2578;51.622;7.046;2022-07-29T15:43:59;19.73;;;18.03;;
5117;SDS011;2578;51.622;7.046;2022-07-29T15:46:25;20.10;;;18.40;;
5117;SDS011;2578;51.622;7.046;2022-07-29T15:49:26;19.73;;;18.03;;
5117;SDS011;2578;51.622;7.046;2022-07-29T15:51:56;21.30;;;19.40;;
5117;SDS011;2578;51.622;7.046;2022-07-29T15:54:23;20.50;;;18.70;;
5117;SDS011;2578;51.622;7.046;2022-07-29T15:56:49;22.03;;;19.93;;
5117;SDS011;2578;51.622;7.046;2022-07-29T15:59:15;21.00;;;19.20;;
5117;SDS011;2578;51.622;7.046;2022-07-29T16:01:41;21.00;;;19.20;;
5117;SDS011;2578;51.622;7.046;2022-07-29T16:04:06;21.97;;;20.07;;
5117;SDS011;2578;51.622;7.046;2022-07-29T16:06:32;21.50;;;19.60;;